createdAt,value
2023-04-10T00:00:24.324Z,15.27
2023-04-10T00:02:53.540Z,14.80
2023-04-10T00:05:23.045Z,14.30
2023-04-10T00:07:52.165Z,15.53
2023-04-10T00:10:21.279Z,14.23
2023-04-10T00:12:51.197Z,15.10
2023-04-10T00:15:21.752Z,14.40
2023-04-10T00:17:55.131Z,15.20
2023-04-10T00:20:26.231Z,15.13
2023-04-10T00:22:55.626Z,15.30
2023-04-10T00:25:24.698Z,15.33
2023-04-10T00:27:54.016Z,15.93
2023-04-10T00:30:24.778Z,14.27
2023-04-10T00:32:53.976Z,14.93
2023-04-10T00:35:23.022Z,15.67
2023-04-10T00:37:54.480Z,15.07
2023-04-10T00:40:23.681Z,15.00
2023-04-10T00:42:53.046Z,15.03
2023-04-10T00:45:23.712Z,14.23
2023-04-10T00:47:53.454Z,14.13
2023-04-10T00:50:23.112Z,14.80
2023-04-10T00:52:52.700Z,16.33
2023-04-10T00:55:21.884Z,15.07
2023-04-10T00:57:50.976Z,16.57
2023-04-10T01:00:20.507Z,15.43
2023-04-10T01:02:52.172Z,17.17
2023-04-10T01:05:21.726Z,15.50
2023-04-10T01:08:03.761Z,15.43
2023-04-10T01:10:43.994Z,14.43
2023-04-10T01:13:22.868Z,13.97
2023-04-10T01:16:10.450Z,14.40
2023-04-10T01:18:47.360Z,14.27
2023-04-10T01:21:18.032Z,14.37
2023-04-10T01:24:19.846Z,14.33
2023-04-10T01:27:06.072Z,15.13
2023-04-10T01:29:44.503Z,16.07
2023-04-10T01:32:17.754Z,15.20
2023-04-10T01:34:48.878Z,16.03
2023-04-10T01:37:21.444Z,15.17
2023-04-10T01:39:55.925Z,16.03
2023-04-10T01:42:26.472Z,15.87
2023-04-10T01:44:58.349Z,16.13
2023-04-10T01:47:29.032Z,14.83
2023-04-10T01:49:59.926Z,15.10
2023-04-10T01:52:31.335Z,16.07
2023-04-10T01:55:11.410Z,14.93
2023-04-10T01:57:48.862Z,14.10
2023-04-10T02:00:19.586Z,16.07
2023-04-10T02:02:48.934Z,14.67
2023-04-10T02:05:18.707Z,13.93
2023-04-10T02:07:56.128Z,16.17
2023-04-10T02:10:31.397Z,16.27
2023-04-10T02:13:06.590Z,14.77
2023-04-10T02:15:40.891Z,15.43
2023-04-10T02:18:12.381Z,16.03
2023-04-10T02:20:42.409Z,15.37
2023-04-10T02:23:11.753Z,18.20
2023-04-10T02:25:40.954Z,16.17
2023-04-10T02:28:10.673Z,14.87
2023-04-10T02:30:41.105Z,17.10
2023-04-10T02:33:13.225Z,14.47
2023-04-10T02:35:42.398Z,15.53
2023-04-10T02:38:11.508Z,16.63
2023-04-10T02:40:40.559Z,15.83
2023-04-10T02:43:14.991Z,15.93
2023-04-10T02:45:46.464Z,15.23
2023-04-10T02:48:21.537Z,14.90
2023-04-10T02:50:58.522Z,16.67
2023-04-10T02:53:28.803Z,16.50
2023-04-10T02:56:02.299Z,16.53
2023-04-10T02:58:31.640Z,16.50
2023-04-10T03:01:03.169Z,16.20
2023-04-10T03:03:59.024Z,16.13
2023-04-10T03:06:34.346Z,14.60
2023-04-10T03:09:03.533Z,14.93
2023-04-10T03:11:32.590Z,17.50
2023-04-10T03:14:01.662Z,17.53
2023-04-10T03:16:32.245Z,16.23
2023-04-10T03:19:04.905Z,16.07
2023-04-10T03:21:33.983Z,15.83
2023-04-10T03:24:03.083Z,15.23
2023-04-10T03:26:32.144Z,16.03
2023-04-10T03:29:01.678Z,15.37
2023-04-10T03:31:32.206Z,15.50
2023-04-10T03:34:03.045Z,15.83
2023-04-10T03:36:32.131Z,14.50
2023-04-10T03:39:01.170Z,13.90
2023-04-10T03:41:30.982Z,15.07
2023-04-10T03:44:02.020Z,17.93
2023-04-10T03:46:32.545Z,15.87
2023-04-10T03:49:02.459Z,15.30
2023-04-10T03:51:33.428Z,15.57
2023-04-10T03:54:02.486Z,16.33
2023-04-10T03:56:31.712Z,16.07
2023-04-10T03:59:01.722Z,17.57
2023-04-10T04:01:32.981Z,14.40
2023-04-10T04:04:07.622Z,15.63
2023-04-10T04:06:57.372Z,14.97
2023-04-10T04:09:45.028Z,15.03
2023-04-10T04:12:25.622Z,17.30
2023-04-10T04:15:05.445Z,14.67
2023-04-10T04:17:57.977Z,16.30
2023-04-10T04:20:45.079Z,16.70
2023-04-10T04:23:32.457Z,15.30
2023-04-10T04:26:14.552Z,15.13
2023-04-10T04:29:02.182Z,14.57
2023-04-10T04:31:51.827Z,15.50
2023-04-10T04:34:40.589Z,15.53
2023-04-10T04:37:29.741Z,14.37
2023-04-10T04:40:19.163Z,14.70
2023-04-10T04:43:00.716Z,14.77
2023-04-10T04:45:47.432Z,15.50
2023-04-10T04:48:37.436Z,15.80
2023-04-10T04:51:16.383Z,15.00
2023-04-10T04:53:51.190Z,14.80
2023-04-10T04:56:39.187Z,16.23
2023-04-10T04:59:26.769Z,17.13
2023-04-10T05:02:00.521Z,16.20
2023-04-10T05:04:58.963Z,17.00
2023-04-10T05:07:44.474Z,15.90
2023-04-10T05:10:45.640Z,18.57
2023-04-10T05:13:43.980Z,16.80
2023-04-10T05:16:36.203Z,17.37
2023-04-10T05:19:39.628Z,16.17
2023-04-10T05:22:18.617Z,15.93
2023-04-10T05:25:08.988Z,17.67
2023-04-10T05:27:44.597Z,16.60
2023-04-10T05:30:39.633Z,18.23
2023-04-10T05:33:27.742Z,16.23
2023-04-10T05:36:25.768Z,16.10
2023-04-10T05:39:01.285Z,16.33
2023-04-10T05:41:41.145Z,16.87
2023-04-10T05:44:28.736Z,18.00
2023-04-10T05:46:57.744Z,17.27
2023-04-10T05:49:49.740Z,16.53
2023-04-10T05:52:24.756Z,16.83
2023-04-10T05:55:06.683Z,16.30
2023-04-10T05:57:37.037Z,16.60
2023-04-10T06:00:25.374Z,14.97
2023-04-10T06:03:29.277Z,14.33
2023-04-10T06:06:03.373Z,14.43
2023-04-10T06:08:34.605Z,14.80
2023-04-10T06:11:03.849Z,14.87
2023-04-10T06:13:36.019Z,13.93
2023-04-10T06:16:06.063Z,15.10
2023-04-10T06:18:36.908Z,13.43
2023-04-10T06:21:06.527Z,14.33
2023-04-10T06:23:35.958Z,12.90
2023-04-10T06:26:05.705Z,13.03
2023-04-10T06:28:36.891Z,11.87
2023-04-10T06:31:08.173Z,12.23
2023-04-10T06:33:39.367Z,13.73
2023-04-10T06:36:11.015Z,11.13
2023-04-10T06:38:49.137Z,11.07
2023-04-10T06:41:18.244Z,11.87
2023-04-10T06:43:48.810Z,12.77
2023-04-10T06:46:17.993Z,11.30
2023-04-10T06:48:47.044Z,11.27
2023-04-10T06:51:16.188Z,11.40
2023-04-10T06:53:45.245Z,12.07
2023-04-10T06:56:14.350Z,12.00
2023-04-10T06:58:43.489Z,11.47
2023-04-10T07:01:14.218Z,11.20
2023-04-10T07:03:43.412Z,11.73
2023-04-10T07:06:12.932Z,11.33
2023-04-10T07:08:42.173Z,11.00
2023-04-10T07:11:11.432Z,10.57
2023-04-10T07:13:40.717Z,11.53
2023-04-10T07:16:11.037Z,10.20
2023-04-10T07:18:41.539Z,11.07
2023-04-10T07:21:13.026Z,10.50
2023-04-10T07:23:42.232Z,9.73
2023-04-10T07:26:11.596Z,10.30
2023-04-10T07:28:40.769Z,10.40
2023-04-10T07:31:10.543Z,9.50
2023-04-10T07:33:41.249Z,10.80
2023-04-10T07:36:10.836Z,9.97
2023-04-10T07:38:39.990Z,10.77
2023-04-10T07:41:09.679Z,10.25
2023-04-10T07:43:38.807Z,10.55
2023-04-10T07:46:08.312Z,9.45
2023-04-10T07:48:37.470Z,10.43
2023-04-10T07:51:09.701Z,10.23
2023-04-10T07:53:38.811Z,9.45
2023-04-10T07:56:10.919Z,9.85
2023-04-10T07:58:39.990Z,9.95
2023-04-10T08:01:09.169Z,8.80
2023-04-10T08:03:41.319Z,10.57
2023-04-10T08:06:12.728Z,9.52
2023-04-10T08:08:43.239Z,9.45
2023-04-10T08:11:25.629Z,9.57
2023-04-10T08:13:55.852Z,9.13
2023-04-10T08:16:26.467Z,9.82
2023-04-10T08:18:56.799Z,9.32
2023-04-10T08:21:28.435Z,10.13
2023-04-10T08:23:58.946Z,9.50
2023-04-10T08:26:29.219Z,9.35
2023-04-10T08:29:00.730Z,10.45
2023-04-10T08:31:30.569Z,8.77
2023-04-10T08:34:00.132Z,9.30
2023-04-10T08:36:31.716Z,8.90
2023-04-10T08:39:00.854Z,9.55
2023-04-10T08:41:29.978Z,8.90
2023-04-10T08:43:59.341Z,9.13
2023-04-10T08:46:30.274Z,9.10
2023-04-10T08:49:03.911Z,8.77
2023-04-10T08:51:40.670Z,9.50
2023-04-10T08:54:14.155Z,8.40
2023-04-10T08:56:47.957Z,9.15
2023-04-10T08:59:17.353Z,9.05
2023-04-10T09:01:46.823Z,9.80
2023-04-10T09:04:16.950Z,9.25
2023-04-10T09:06:47.819Z,8.57
2023-04-10T09:09:16.974Z,8.93
2023-04-10T09:12:01.258Z,8.65
2023-04-10T09:14:31.825Z,8.80
2023-04-10T09:17:15.325Z,8.25
2023-04-10T09:19:45.664Z,8.70
2023-04-10T09:22:17.255Z,8.35
2023-04-10T09:24:48.289Z,8.15
2023-04-10T09:27:33.639Z,7.72
2023-04-10T09:30:03.268Z,8.55
2023-04-10T09:32:40.776Z,8.25
2023-04-10T09:35:11.052Z,8.18
2023-04-10T09:37:42.650Z,8.02
2023-04-10T09:40:23.901Z,8.90
2023-04-10T09:42:54.011Z,7.97
2023-04-10T09:45:23.559Z,7.63
2023-04-10T09:48:04.278Z,8.13
2023-04-10T09:50:39.584Z,8.27
2023-04-10T09:53:11.527Z,7.50
2023-04-10T09:55:41.662Z,7.53
2023-04-10T09:58:11.855Z,7.55
2023-04-10T10:00:43.047Z,6.28
2023-04-10T10:03:14.286Z,7.18
2023-04-10T10:05:45.347Z,6.68
2023-04-10T10:08:16.890Z,6.85
2023-04-10T10:10:48.959Z,6.80
2023-04-10T10:13:24.663Z,6.68
2023-04-10T10:16:02.888Z,7.38
2023-04-10T10:18:40.385Z,6.78
2023-04-10T10:21:11.029Z,5.53
2023-04-10T10:23:43.393Z,5.90
2023-04-10T10:26:13.588Z,6.57
2023-04-10T10:28:44.129Z,6.82
2023-04-10T10:31:13.634Z,6.72
2023-04-10T10:33:43.362Z,6.03
2023-04-10T10:36:13.931Z,6.72
2023-04-10T10:38:52.420Z,7.30
2023-04-10T10:41:29.645Z,6.18
2023-04-10T10:44:09.449Z,6.28
2023-04-10T10:46:45.563Z,6.00
2023-04-10T10:49:14.614Z,4.97
2023-04-10T10:51:48.504Z,5.82
2023-04-10T10:54:32.365Z,6.53
2023-04-10T10:57:02.389Z,5.50
2023-04-10T11:00:01.360Z,5.53
2023-04-10T11:02:30.492Z,5.38
2023-04-10T11:04:59.613Z,6.15
2023-04-10T11:08:10.280Z,5.00
2023-04-10T11:11:03.785Z,4.90
2023-04-10T11:13:33.687Z,5.00
2023-04-10T11:16:04.815Z,4.43
2023-04-10T11:19:13.334Z,4.97
2023-04-10T11:22:03.499Z,4.93
2023-04-10T11:24:53.401Z,4.88
2023-04-10T11:27:46.259Z,4.93
2023-04-10T11:30:33.090Z,4.97
2023-04-10T11:33:04.028Z,4.63
2023-04-10T11:35:34.279Z,4.78
2023-04-10T11:38:17.686Z,5.10
2023-04-10T11:41:04.477Z,4.68
2023-04-10T11:43:35.824Z,4.57
2023-04-10T11:46:07.292Z,4.43
2023-04-10T11:48:37.956Z,4.30
2023-04-10T11:51:12.012Z,4.72
2023-04-10T11:53:42.474Z,4.97
2023-04-10T11:56:22.770Z,6.60
2023-04-10T11:58:54.757Z,4.63
2023-04-10T12:01:24.965Z,4.20
2023-04-10T12:03:54.447Z,4.93
2023-04-10T12:06:24.109Z,4.63
2023-04-10T12:08:53.643Z,5.55
2023-04-10T12:11:25.413Z,9.73
2023-04-10T12:13:57.620Z,5.15
2023-04-10T12:16:27.658Z,5.65
2023-04-10T12:18:57.052Z,5.10
2023-04-10T12:21:27.327Z,3.85
2023-04-10T12:23:56.498Z,3.58
2023-04-10T12:26:25.907Z,3.72
2023-04-10T12:28:58.687Z,3.42
2023-04-10T12:31:31.576Z,3.15
2023-04-10T12:34:02.162Z,3.50
2023-04-10T12:36:34.266Z,3.60
2023-04-10T12:39:05.232Z,3.38
2023-04-10T12:41:36.190Z,3.45
2023-04-10T12:44:11.963Z,3.67
2023-04-10T12:46:42.165Z,3.50
2023-04-10T12:49:13.173Z,3.60
2023-04-10T12:51:47.106Z,3.30
2023-04-10T12:54:30.350Z,3.58
2023-04-10T12:57:00.631Z,3.25
2023-04-10T12:59:31.755Z,3.33
2023-04-10T13:02:01.082Z,3.08
2023-04-10T13:04:32.749Z,3.15
2023-04-10T13:07:02.059Z,2.92
2023-04-10T13:09:31.141Z,2.60
2023-04-10T13:12:00.200Z,2.95
2023-04-10T13:14:30.651Z,2.85
2023-04-10T13:16:59.767Z,3.10
2023-04-10T13:19:28.823Z,2.72
2023-04-10T13:22:01.123Z,2.78
2023-04-10T13:24:30.386Z,2.92
2023-04-10T13:26:59.478Z,3.08
2023-04-10T13:29:30.255Z,3.03
2023-04-10T13:32:01.208Z,2.25
2023-04-10T13:34:30.513Z,2.65
2023-04-10T13:36:59.800Z,2.85
2023-04-10T13:39:32.128Z,2.88
2023-04-10T13:42:02.117Z,2.75
2023-04-10T13:44:32.630Z,2.90
2023-04-10T13:47:01.748Z,2.47
2023-04-10T13:49:31.192Z,2.90
2023-04-10T13:52:00.299Z,2.63
2023-04-10T13:54:29.306Z,2.90
2023-04-10T13:56:59.277Z,3.17
2023-04-10T13:59:28.388Z,2.90
2023-04-10T14:01:58.899Z,3.03
2023-04-10T14:04:27.995Z,3.10
2023-04-10T14:07:00.417Z,2.95
2023-04-10T14:09:29.753Z,3.08
2023-04-10T14:11:58.855Z,3.03
2023-04-10T14:14:27.884Z,2.65
2023-04-10T14:16:58.596Z,3.00
2023-04-10T14:19:27.829Z,3.20
2023-04-10T14:21:57.009Z,3.60
2023-04-10T14:24:26.058Z,3.42
2023-04-10T14:26:58.189Z,3.30
2023-04-10T14:29:36.291Z,3.30
2023-04-10T14:32:11.175Z,3.53
2023-04-10T14:34:40.343Z,3.78
2023-04-10T14:37:09.592Z,3.55
2023-04-10T14:39:38.854Z,2.88
2023-04-10T14:42:08.131Z,3.50
2023-04-10T14:44:37.371Z,4.40
2023-04-10T14:47:06.669Z,4.20
2023-04-10T14:49:37.127Z,3.85
2023-04-10T14:52:06.259Z,3.90
2023-04-10T14:54:35.376Z,4.10
2023-04-10T14:57:04.938Z,4.30
2023-04-10T14:59:34.058Z,4.25
2023-04-10T15:02:03.252Z,4.43
2023-04-10T15:04:32.851Z,4.65
2023-04-10T15:07:03.391Z,4.40
2023-04-10T15:09:33.126Z,4.75
2023-04-10T15:12:02.332Z,3.85
2023-04-10T15:14:31.610Z,3.85
2023-04-10T15:17:01.067Z,3.95
2023-04-10T15:19:30.444Z,3.95
2023-04-10T15:21:59.604Z,3.63
2023-04-10T15:24:32.536Z,3.42
2023-04-10T15:27:09.662Z,3.70
2023-04-10T15:29:40.132Z,3.88
2023-04-10T15:32:09.388Z,4.40
2023-04-10T15:34:38.554Z,3.70
2023-04-10T15:37:07.691Z,4.40
2023-04-10T15:39:38.427Z,4.53
2023-04-10T15:42:08.488Z,4.63
2023-04-10T15:44:37.621Z,3.70
2023-04-10T15:47:06.873Z,3.78
2023-04-10T15:49:38.168Z,3.55
2023-04-10T15:52:08.189Z,3.28
2023-04-10T15:54:40.380Z,3.20
2023-04-10T15:57:09.604Z,2.95
2023-04-10T15:59:38.765Z,3.17
2023-04-10T16:02:08.320Z,2.70
2023-04-10T16:04:37.776Z,3.03
2023-04-10T16:07:07.035Z,3.25
2023-04-10T16:09:37.466Z,2.80
2023-04-10T16:12:06.830Z,3.03
2023-04-10T16:14:35.952Z,2.80
2023-04-10T16:17:05.048Z,3.28
2023-04-10T16:19:34.173Z,3.45
2023-04-10T16:22:03.257Z,3.22
2023-04-10T16:24:33.201Z,2.90
2023-04-10T16:27:03.629Z,3.88
2023-04-10T16:29:32.752Z,3.30
2023-04-10T16:32:02.099Z,3.35
2023-04-10T16:34:31.273Z,3.92
2023-04-10T16:37:00.284Z,3.88
2023-04-10T16:39:29.323Z,4.38
2023-04-10T16:41:58.997Z,4.22
2023-04-10T16:44:29.788Z,4.40
2023-04-10T16:46:58.992Z,4.63
2023-04-10T16:49:28.278Z,4.80
2023-04-10T16:51:58.676Z,4.63
2023-04-10T16:54:27.729Z,4.45
2023-04-10T16:56:57.990Z,3.95
2023-04-10T16:59:28.341Z,4.22
2023-04-10T17:01:57.557Z,4.25
2023-04-10T17:04:26.844Z,4.50
2023-04-10T17:06:55.954Z,4.93
2023-04-10T17:09:25.073Z,4.18
2023-04-10T17:11:54.146Z,3.97
2023-04-10T17:14:23.316Z,4.45
2023-04-10T17:16:53.804Z,3.55
2023-04-10T17:19:22.953Z,4.25
2023-04-10T17:21:52.182Z,4.07
2023-04-10T17:24:21.326Z,4.05
2023-04-10T17:26:51.187Z,3.60
2023-04-10T17:29:20.749Z,4.40
2023-04-10T17:31:49.994Z,3.97
2023-04-10T17:34:20.897Z,4.30
2023-04-10T17:36:50.650Z,4.22
2023-04-10T17:39:20.052Z,4.55
2023-04-10T17:41:52.528Z,4.57
2023-04-10T17:44:22.214Z,3.95
2023-04-10T17:46:53.579Z,4.13
2023-04-10T17:49:30.017Z,4.15
2023-04-10T17:51:59.439Z,3.90
2023-04-10T17:54:31.753Z,3.88
2023-04-10T17:57:04.144Z,3.80
2023-04-10T17:59:34.270Z,3.95
2023-04-10T18:02:03.518Z,3.70
2023-04-10T18:04:34.764Z,4.40
2023-04-10T18:07:10.273Z,4.03
2023-04-10T18:09:39.575Z,4.05
2023-04-10T18:12:08.860Z,3.95
2023-04-10T18:14:38.404Z,3.70
2023-04-10T18:17:10.974Z,4.18
2023-04-10T18:19:42.021Z,4.20
2023-04-10T18:22:11.844Z,4.07
2023-04-10T18:24:41.927Z,4.25
2023-04-10T18:27:16.833Z,4.68
2023-04-10T18:29:50.825Z,4.25
2023-04-10T18:32:22.854Z,3.95
2023-04-10T18:34:54.504Z,3.80
2023-04-10T18:37:28.994Z,4.05
2023-04-10T18:40:03.502Z,4.28
2023-04-10T18:42:43.133Z,3.92
2023-04-10T18:45:15.145Z,4.63
2023-04-10T18:47:47.959Z,3.35
2023-04-10T18:50:19.405Z,3.60
2023-04-10T18:52:50.830Z,4.57
2023-04-10T18:55:21.858Z,4.20
2023-04-10T18:57:53.844Z,5.00
2023-04-10T19:00:23.299Z,4.03
2023-04-10T19:02:52.508Z,4.70
2023-04-10T19:05:23.386Z,4.50
2023-04-10T19:08:03.689Z,3.72
2023-04-10T19:10:34.668Z,4.72
2023-04-10T19:13:06.810Z,4.78
2023-04-10T19:15:41.469Z,4.90
2023-04-10T19:18:13.122Z,4.43
2023-04-10T19:20:53.571Z,4.20
2023-04-10T19:23:23.002Z,4.47
2023-04-10T19:25:55.719Z,4.38
2023-04-10T19:28:25.702Z,4.80
2023-04-10T19:30:54.952Z,4.73
2023-04-10T19:33:26.890Z,4.38
2023-04-10T19:35:59.179Z,4.53
2023-04-10T19:38:29.541Z,4.15
2023-04-10T19:40:59.021Z,4.82
2023-04-10T19:43:30.165Z,4.60
2023-04-10T19:45:59.911Z,4.22
2023-04-10T19:48:30.301Z,5.00
2023-04-10T19:51:08.638Z,4.80
2023-04-10T19:53:37.822Z,4.43
2023-04-10T19:56:07.627Z,5.37
2023-04-10T19:58:41.039Z,5.00
2023-04-10T20:01:11.820Z,5.00
2023-04-10T20:03:41.558Z,4.33
2023-04-10T20:06:12.119Z,5.68
2023-04-10T20:08:41.227Z,4.10
2023-04-10T20:11:10.245Z,4.38
2023-04-10T20:13:40.883Z,4.07
2023-04-10T20:16:10.213Z,4.38
2023-04-10T20:18:41.136Z,4.73
2023-04-10T20:21:11.569Z,4.53
2023-04-10T20:23:40.648Z,4.65
2023-04-10T20:26:09.690Z,4.67
2023-04-10T20:28:39.493Z,5.10
2023-04-10T20:31:10.679Z,4.70
2023-04-10T20:33:39.810Z,4.70
2023-04-10T20:36:09.708Z,4.95
2023-04-10T20:38:40.333Z,4.67
2023-04-10T20:41:09.486Z,4.90
2023-04-10T20:43:38.744Z,4.18
2023-04-10T20:46:08.965Z,4.10
2023-04-10T20:48:38.321Z,5.33
2023-04-10T20:51:08.130Z,4.45
2023-04-10T20:53:37.172Z,4.45
2023-04-10T20:56:08.194Z,3.70
2023-04-10T20:58:37.348Z,4.53
2023-04-10T21:01:08.934Z,4.28
2023-04-10T21:03:38.354Z,4.23
2023-04-10T21:06:09.021Z,4.22
2023-04-10T21:08:38.143Z,4.88
2023-04-10T21:11:08.899Z,4.38
2023-04-10T21:13:38.584Z,3.65
2023-04-10T21:16:08.417Z,3.80
2023-04-10T21:18:37.534Z,4.30
2023-04-10T21:21:07.080Z,4.47
2023-04-10T21:23:36.171Z,4.20
2023-04-10T21:26:05.317Z,4.30
2023-04-10T21:28:35.799Z,3.80
2023-04-10T21:31:05.024Z,3.63
2023-04-10T21:33:34.187Z,3.88
2023-04-10T21:36:03.298Z,3.27
2023-04-10T21:38:32.376Z,3.47
2023-04-10T21:41:01.497Z,3.60
2023-04-10T21:43:30.616Z,3.80
2023-04-10T21:46:02.691Z,4.13
2023-04-10T21:48:32.036Z,3.10
2023-04-10T21:51:02.779Z,3.55
2023-04-10T21:53:31.827Z,3.37
2023-04-10T21:56:00.971Z,3.87
2023-04-10T21:58:31.602Z,3.40
2023-04-10T22:01:02.313Z,3.50
2023-04-10T22:03:31.673Z,3.10
2023-04-10T22:06:00.953Z,2.80
2023-04-10T22:08:30.135Z,3.23
2023-04-10T22:10:59.174Z,3.10
2023-04-10T22:13:31.130Z,2.60
2023-04-10T22:16:02.809Z,1.77
2023-04-10T22:18:32.254Z,2.67
2023-04-10T22:21:01.437Z,2.00
2023-04-10T22:23:30.521Z,2.50
2023-04-10T22:26:01.487Z,2.10
2023-04-10T22:28:30.580Z,2.27
2023-04-10T22:31:01.204Z,1.93
2023-04-10T22:33:32.564Z,1.90
2023-04-10T22:36:01.598Z,2.30
2023-04-10T22:38:30.764Z,2.00
2023-04-10T22:40:59.831Z,1.90
2023-04-10T22:43:29.011Z,2.30
2023-04-10T22:45:58.092Z,1.73
2023-04-10T22:48:28.534Z,1.80
2023-04-10T22:50:57.595Z,1.53
2023-04-10T22:53:28.607Z,1.53
2023-04-10T22:55:57.679Z,2.03
2023-04-10T22:58:26.805Z,1.67
2023-04-10T23:00:55.897Z,2.50
2023-04-10T23:03:24.994Z,2.40
2023-04-10T23:05:55.445Z,2.20
2023-04-10T23:08:24.578Z,2.87
2023-04-10T23:10:54.474Z,1.93
2023-04-10T23:13:23.933Z,2.07
2023-04-10T23:15:54.034Z,2.40
2023-04-10T23:18:23.831Z,2.70
2023-04-10T23:20:54.347Z,2.20
2023-04-10T23:23:23.439Z,2.43
2023-04-10T23:25:59.165Z,2.63
2023-04-10T23:28:28.517Z,2.27
2023-04-10T23:30:57.580Z,2.70
2023-04-10T23:33:27.107Z,2.97
2023-04-10T23:35:57.599Z,2.50
2023-04-10T23:38:26.700Z,2.60
2023-04-10T23:40:55.813Z,2.40
2023-04-10T23:43:24.871Z,2.50
2023-04-10T23:45:54.036Z,2.33
2023-04-10T23:48:23.159Z,2.20
2023-04-10T23:50:52.332Z,2.43
2023-04-10T23:53:22.740Z,2.80
2023-04-10T23:55:51.842Z,2.53
2023-04-10T23:58:20.924Z,2.53
